^^

Meteo Aereoporti Centro-Italia

 

 
LIRZ - Perugia S.Egidio (208 m.)
Dati ricevuti: 29/07/2021 11:50
Sereno
Sereno
 Vento da direzione variabile
Vento: direzione variabile 6 km/h
TEMPERATURA: 32°C
P.to di Rugiada: 10°C
Umidità: 26%
Pressione: 1015 hPa
Nuvole: Sereno
Visibilità: 10 km
2021/07/29 09:50 LIRZ 290950Z AUTO VRB03KT 9999 NCD 32/10 Q1015
 
LIPY - Ancona Falconara (12 m.)
Dati ricevuti: 29/07/2021 11:50
Sereno
Sereno
 Vento da NE
Vento: NE 15 km/h
TEMPERATURA: 29°C
Indice di Calore: 31°C
P.to di Rugiada: 20°C
Umidità: 58%
Pressione: 1013 hPa
Nuvole: Sereno
Visibilità: 10 km
2021/07/29 09:50 LIPY 290950Z AUTO 04008KT 360V060 9999 NCD 29/20 Q1013
 
LIPR - Rimini Miramare (12 m.)
Dati ricevuti: 29/07/2021 11:50
Sereno
Sereno
 Vento da NNE
Vento: NNE 15 km/h
TEMPERATURA: 28°C
Indice di Calore: 30°C
P.to di Rugiada: 21°C
Umidità: 66%
Pressione: 1013 hPa
Condizioni generali: Sereno
Visibilità: oltre 10 km
2021/07/29 09:50 LIPR 290950Z 03008KT 360V060 CAVOK 28/21 Q1013
 
LIRF - Roma Fiumicino (2 m.)
Dati ricevuti: 29/07/2021 11:50
Sereno
Sereno
 Vento da S
Vento: S 22 km/h
TEMPERATURA: 31°C
Indice di Calore: 33°C
P.to di Rugiada: 20°C
Umidità: 52%
Pressione: 1014 hPa
Condizioni generali: Sereno
Visibilità: oltre 10 km
2021/07/29 09:50 LIRF 290950Z 19012KT CAVOK 31/20 Q1014 NOSIG
 
LIRA - Roma Ciampino (129 m.)
Dati ricevuti: 29/07/2021 11:50
Sereno
Sereno
 Vento da SSW
Vento: SSW 24 km/h
TEMPERATURA: 34°C
P.to di Rugiada: 11°C
Umidità: 24%
Pressione: 1014 hPa
Condizioni generali: Sereno
Visibilità: oltre 10 km
2021/07/29 09:50 LIRA 290950Z 20013KT 160V220 CAVOK 34/11 Q1014
 
LIRU - Roma Urbe (17 m.)
Dati ricevuti: 29/07/2021 08:50
Dati non aggiornati
Sereno
Sereno
 Vento da N
Vento: N 7 km/h
TEMPERATURA: 24°C
P.to di Rugiada: 14°C
Umidità: 54%
Pressione: 1014 hPa
Condizioni generali: Sereno
Visibilità: oltre 10 km
2021/07/29 06:50 LIRU 290650Z 36004KT CAVOK 24/14 Q1014
 
LIVF - Frontone (570 m.)
Dati ricevuti: 21/07/2021 15:26
Dati non aggiornati
Pioggia e temporali, Poco nuvoloso
Pioggia e temporali, Poco nuvoloso
 Vento da NW
Vento: NW 22 km/h
TEMPERATURA: 23°C
P.to di Rugiada: 16°C
Umidità: 65%
Pressione: 1019 hPa
Condizioni generali: Thunderstorm Rain
Nuvole: Poco nuvoloso
Visibilità: 3 km
Dettagli Nuvole: Poco nuvoloso 762 m
Poco nuvoloso 914 m
2021/07/21 13:26 LIVF 211326Z 31012KT 3000 TSRA SCT025CB SCT030 23/16 Q1019 RMK BKN MON INVIS VAL INVIS VIS MIN 3000
 
LIRQ - Firenze Peretola (40 m.)
Dati ricevuti: 29/07/2021 11:50
Sereno
Sereno
 Vento da direzione variabile
Vento: direzione variabile 6 km/h
TEMPERATURA: 31°C
Indice di Calore: 32°C
P.to di Rugiada: 17°C
Umidità: 43%
Pressione: 1014 hPa
Condizioni generali: Sereno
Visibilità: oltre 10 km
2021/07/29 09:50 LIRQ 290950Z VRB03KT CAVOK 31/17 Q1014
 
LIBP - Pescara (10 m.)
Dati ricevuti: 29/07/2021 11:50
Qualche nuvola
Qualche nuvola
 Vento da E
Vento: E 17 km/h
TEMPERATURA: 33°C
P.to di Rugiada: 13°C
Umidità: 30%
Pressione: 1014 hPa
Nuvole: Qualche nuvola
Visibilità: 10 km
Dettagli Nuvole: Qualche nuvola 7010 m
2021/07/29 09:50 LIBP 290950Z AUTO 08009KT 9999 FEW230/// 33/13 Q1014
 
LIRV - Viterbo (300 m.)
Dati ricevuti: 29/07/2021 10:55
Sereno
Sereno
 Vento da WSW
Vento: WSW 11 km/h
TEMPERATURA: 30°C
Indice di Calore: 31°C
P.to di Rugiada: 18°C
Umidità: 49%
Pressione: 1016 hPa
Condizioni generali: Sereno
Visibilità: oltre 10 km
2021/07/29 08:55 LIRV 290855Z 24006KT CAVOK 30/18 Q1016
 
LIQN - Rieti (389 m.)
Dati ricevuti: 29/07/2021 10:50
Sereno
Sereno
 Vento da E
Vento: E 11 km/h
TEMPERATURA: 32°C
P.to di Rugiada: 9°C
Umidità: 24%
Pressione: 1016 hPa
Condizioni generali: Sereno
Visibilità: oltre 10 km
2021/07/29 08:50 LIQN 290850Z 10006KT 040V150 CAVOK 32/09 Q1016
 
LIRG - Guidonia -RM- (88 m.)
Dati ricevuti: 29/07/2021 10:55
Sereno
Sereno
 Vento da S
Vento: S 22 km/h
TEMPERATURA: 33°C
P.to di Rugiada: 15°C
Umidità: 34%
Pressione: 1014 hPa
Condizioni generali: Sereno
Visibilità: oltre 10 km
2021/07/29 08:55 LIRG 290855Z 18012KT CAVOK 33/15 Q1014
 
LIRK - Terminillo -RI-(1874 m.)
Dati ricevuti: 29/07/2021 10:55

 Vento da SW
Vento: SW 7 km/h
TEMPERATURA: 18°C
P.to di Rugiada: 2°C
Umidità: 34%
Pressione: 1026 hPa
2021/07/29 08:55 LIRK 290855Z AUTO 22004KT //// 18/02 Q1026
 
LIPK - Forlì (27 m.)
Dati ricevuti: 29/07/2021 11:50
Sereno
Sereno
 Vento da direzione variabile
Vento: direzione variabile 2 km/h
TEMPERATURA: 30°C
Indice di Calore: 30°C
P.to di Rugiada: 16°C
Umidità: 43%
Pressione: 1013 hPa
Condizioni generali: Sereno
Visibilità: oltre 10 km
2021/07/29 09:50 LIPK 290950Z VRB01KT CAVOK 30/16 Q1013
 
LIRS - Grosseto (5 m.)
Dati ricevuti: 29/07/2021 10:55
Sereno
Sereno
 Vento da direzione variabile
Vento: direzione variabile 6 km/h
TEMPERATURA: 29°C
Indice di Calore: 31°C
P.to di Rugiada: 20°C
Umidità: 58%
Pressione: 1014 hPa
Condizioni generali: Sereno
Visibilità: oltre 10 km
2021/07/29 08:55 LIRS 290855Z VRB03KT CAVOK 29/20 Q1014
 
LIRP - Pisa S.Giusto (2 m.)
Dati ricevuti: 29/07/2021 11:45
Sereno
Sereno
 Vento da SSE
Vento: SSE 7 km/h
TEMPERATURA: 29°C
Indice di Calore: 29°C
P.to di Rugiada: 18°C
Umidità: 51%
Pressione: 1014 hPa
Condizioni generali: Sereno
Visibilità: oltre 10 km
2021/07/29 09:45 LIRP 290945Z 15004KT CAVOK 29/18 Q1014 NOSIG